createdAt,value
2023-03-22T00:00:37.811Z,97.25
2023-03-22T00:01:22.592Z,97.25
2023-03-22T00:02:07.713Z,97.25
2023-03-22T00:02:52.729Z,97.25
2023-03-22T00:03:37.808Z,97.25
2023-03-22T00:04:22.723Z,97.25
2023-03-22T00:05:08.314Z,97.25
2023-03-22T00:05:53.245Z,97.25
2023-03-22T00:06:38.159Z,97.25
2023-03-22T00:07:23.173Z,97.25
2023-03-22T00:08:08.271Z,97.25
2023-03-22T00:08:53.290Z,97.25
2023-03-22T00:09:38.656Z,97.25
2023-03-22T00:10:24.295Z,97.25
2023-03-22T00:11:08.325Z,97.25
2023-03-22T00:11:53.404Z,97.25
2023-03-22T00:12:38.403Z,97.25
2023-03-22T00:13:23.539Z,97.25
2023-03-22T00:14:08.257Z,97.25
2023-03-22T00:14:54.422Z,97.25
2023-03-22T00:15:38.677Z,97.25
2023-03-22T00:16:23.814Z,97.25
2023-03-22T00:17:08.443Z,97.25
2023-03-22T00:17:54.208Z,97.25
2023-03-22T00:18:39.201Z,97.25
2023-03-22T00:19:24.121Z,97.25
2023-03-22T00:20:09.206Z,97.25
2023-03-22T00:20:54.309Z,97.25
2023-03-22T00:21:39.192Z,97.25
2023-03-22T00:22:24.336Z,97.25
2023-03-22T00:23:09.503Z,97.25
2023-03-22T00:23:54.266Z,97.25
2023-03-22T00:24:39.441Z,97.25
2023-03-22T00:25:24.724Z,97.25
2023-03-22T00:26:09.839Z,97.25
2023-03-22T00:26:54.177Z,97.25
2023-03-22T00:27:39.637Z,97.25
2023-03-22T00:28:24.481Z,97.25
2023-03-22T00:29:09.860Z,97.25
2023-03-22T00:29:54.911Z,97.25
2023-03-22T00:30:39.978Z,97.25
2023-03-22T00:31:24.992Z,97.25
2023-03-22T00:32:09.870Z,97.25
2023-03-22T00:32:54.944Z,97.25
2023-03-22T00:33:39.881Z,97.25
2023-03-22T00:34:24.741Z,97.25
2023-03-22T00:35:09.894Z,97.25
2023-03-22T00:35:55.141Z,97.25
2023-03-22T00:36:39.937Z,97.25
2023-03-22T00:37:25.371Z,97.25
2023-03-22T00:38:09.809Z,97.25
2023-03-22T00:38:55.323Z,97.25
2023-03-22T00:39:40.043Z,97.25
2023-03-22T00:40:25.972Z,97.25
2023-03-22T00:41:10.169Z,97.25
2023-03-22T00:41:56.613Z,97.25
2023-03-22T00:42:40.251Z,97.25
2023-03-22T00:43:25.316Z,97.25
2023-03-22T00:44:10.370Z,97.25
2023-03-22T00:44:55.987Z,97.25
2023-03-22T00:45:40.374Z,97.25
2023-03-22T00:46:25.562Z,97.25
2023-03-22T00:47:11.168Z,97.25
2023-03-22T00:47:55.835Z,97.25
2023-03-22T00:48:40.534Z,97.25
2023-03-22T00:49:25.805Z,97.25
2023-03-22T00:50:11.125Z,97.25
2023-03-22T00:50:55.997Z,97.25
2023-03-22T00:51:41.030Z,97.25
2023-03-22T00:52:26.179Z,97.25
2023-03-22T00:53:11.144Z,97.25
2023-03-22T00:53:56.047Z,97.25
2023-03-22T00:54:41.163Z,97.25
2023-03-22T00:55:26.682Z,97.25
2023-03-22T00:56:11.065Z,97.25
2023-03-22T00:56:56.392Z,97.25
2023-03-22T00:57:40.923Z,97.25
2023-03-22T00:58:26.229Z,97.25
2023-03-22T00:59:11.294Z,97.25
2023-03-22T00:59:56.755Z,97.25
2023-03-22T01:00:41.450Z,97.25
2023-03-22T01:01:26.779Z,97.25
2023-03-22T01:02:11.517Z,97.25
2023-03-22T01:02:56.728Z,97.25
2023-03-22T01:03:41.699Z,97.25
2023-03-22T01:04:26.910Z,97.25
2023-03-22T01:05:11.903Z,97.25
2023-03-22T01:05:56.807Z,97.25
2023-03-22T01:06:41.970Z,97.25
2023-03-22T01:07:26.697Z,97.25
2023-03-22T01:08:11.811Z,97.25
2023-03-22T01:08:57.018Z,97.25
2023-03-22T01:09:42.282Z,97.25
2023-03-22T01:10:27.657Z,97.25
2023-03-22T01:11:12.406Z,97.25
2023-03-22T01:11:57.555Z,97.25
2023-03-22T01:12:42.507Z,97.25
2023-03-22T01:13:27.743Z,97.25
2023-03-22T01:14:12.439Z,97.25
2023-03-22T01:14:57.580Z,97.25
2023-03-22T01:15:42.596Z,97.25
2023-03-22T01:16:27.909Z,97.25
2023-03-22T01:17:12.736Z,97.25
2023-03-22T01:17:57.923Z,97.25
2023-03-22T01:18:42.985Z,97.25
2023-03-22T01:19:28.030Z,97.25
2023-03-22T01:20:13.086Z,97.25
2023-03-22T01:20:58.156Z,97.25
2023-03-22T01:21:43.305Z,97.25
2023-03-22T01:22:28.168Z,97.25
2023-03-22T01:23:12.988Z,97.25
2023-03-22T01:23:58.859Z,97.25
2023-03-22T01:24:42.902Z,97.25
2023-03-22T01:25:28.905Z,97.25
2023-03-22T01:26:14.429Z,97.25
2023-03-22T01:26:58.371Z,97.25
2023-03-22T01:27:43.433Z,97.25
2023-03-22T01:28:28.666Z,97.25
2023-03-22T01:29:13.647Z,97.25
2023-03-22T01:29:58.406Z,97.25
2023-03-22T01:30:43.696Z,97.25
2023-03-22T01:31:28.891Z,97.25
2023-03-22T01:32:13.786Z,97.25
2023-03-22T01:32:58.820Z,97.25
2023-03-22T01:33:43.894Z,97.25
2023-03-22T01:34:28.934Z,97.25
2023-03-22T01:35:15.148Z,97.25
2023-03-22T01:35:59.214Z,97.25
2023-03-22T01:36:44.111Z,97.25
2023-03-22T01:37:29.365Z,97.25
2023-03-22T01:38:14.114Z,97.25
2023-03-22T01:38:59.155Z,97.25
2023-03-22T01:39:44.146Z,97.25
2023-03-22T01:40:30.207Z,97.25
2023-03-22T01:41:14.336Z,97.25
2023-03-22T01:41:59.781Z,97.25
2023-03-22T01:42:44.660Z,97.25
2023-03-22T01:43:29.713Z,97.25
2023-03-22T01:44:14.692Z,97.25
2023-03-22T01:44:59.747Z,97.25
2023-03-22T01:45:44.451Z,97.25
2023-03-22T01:46:29.862Z,97.25
2023-03-22T01:47:14.797Z,97.25
2023-03-22T01:47:59.918Z,97.25
2023-03-22T01:48:45.436Z,97.25
2023-03-22T01:49:29.766Z,97.25
2023-03-22T01:50:15.095Z,97.25
2023-03-22T01:51:00.055Z,97.25
2023-03-22T01:51:44.893Z,97.25
2023-03-22T01:52:29.937Z,97.25
2023-03-22T01:53:15.050Z,97.25
2023-03-22T01:54:00.228Z,97.25
2023-03-22T01:54:45.244Z,97.25
2023-03-22T01:55:30.022Z,97.25
2023-03-22T01:56:15.197Z,97.25
2023-03-22T01:57:00.225Z,97.25
2023-03-22T01:57:45.269Z,97.25
2023-03-22T01:58:30.327Z,97.25
2023-03-22T01:59:14.983Z,97.25
2023-03-22T02:00:00.348Z,97.25
2023-03-22T02:00:45.417Z,97.25
2023-03-22T02:01:30.273Z,97.25
2023-03-22T02:02:15.335Z,97.25
2023-03-22T02:03:00.967Z,97.25
2023-03-22T02:03:45.663Z,97.25
2023-03-22T02:04:30.683Z,97.25
2023-03-22T02:05:15.456Z,97.25
2023-03-22T02:06:00.502Z,97.25
2023-03-22T02:06:45.670Z,97.25
2023-03-22T02:07:30.837Z,97.25
2023-03-22T02:08:16.181Z,97.25
2023-03-22T02:09:00.814Z,97.25
2023-03-22T02:09:45.975Z,97.25
2023-03-22T02:10:31.577Z,97.25
2023-03-22T02:11:15.988Z,97.25
2023-03-22T02:12:01.266Z,97.25
2023-03-22T02:12:46.234Z,97.25
2023-03-22T02:13:31.267Z,97.25
2023-03-22T02:14:16.314Z,97.25
2023-03-22T02:15:01.167Z,97.25
2023-03-22T02:15:46.369Z,97.25
2023-03-22T02:16:31.377Z,97.25
2023-03-22T02:17:16.232Z,97.25
2023-03-22T02:18:01.711Z,97.25
2023-03-22T02:18:46.554Z,97.25
2023-03-22T02:19:31.500Z,97.25
2023-03-22T02:20:16.801Z,97.25
2023-03-22T02:21:02.410Z,97.25
2023-03-22T02:21:46.568Z,97.25
2023-03-22T02:22:31.729Z,97.25
2023-03-22T02:23:17.121Z,97.25
2023-03-22T02:24:02.224Z,97.25
2023-03-22T02:24:47.185Z,97.25
2023-03-22T02:25:32.159Z,97.25
2023-03-22T02:26:17.217Z,97.25
2023-03-22T02:27:01.927Z,97.25
2023-03-22T02:27:47.128Z,97.25
2023-03-22T02:28:32.151Z,97.25
2023-03-22T02:29:17.355Z,97.25
2023-03-22T02:30:02.519Z,97.25
2023-03-22T02:30:47.270Z,97.25
2023-03-22T02:31:32.327Z,97.25
2023-03-22T02:32:17.138Z,97.25
2023-03-22T02:33:02.138Z,97.25
2023-03-22T02:33:47.416Z,97.25
2023-03-22T02:34:32.734Z,97.25
2023-03-22T02:35:17.987Z,97.25
2023-03-22T02:36:02.301Z,97.25
2023-03-22T02:36:47.489Z,97.25
2023-03-22T02:37:32.548Z,97.25
2023-03-22T02:38:17.317Z,97.25
2023-03-22T02:39:02.463Z,97.25
2023-03-22T02:39:47.775Z,97.25
2023-03-22T02:40:32.949Z,97.25
2023-03-22T02:41:18.444Z,97.25
2023-03-22T02:42:02.582Z,97.25
2023-03-22T02:42:47.941Z,97.25
2023-03-22T02:43:33.111Z,97.25
2023-03-22T02:44:17.851Z,97.25
2023-03-22T02:45:03.110Z,97.25
2023-03-22T02:45:47.867Z,97.25
2023-03-22T02:46:33.180Z,97.25
2023-03-22T02:47:18.290Z,97.25
2023-03-22T02:48:03.255Z,97.25
2023-03-22T02:48:48.296Z,97.25
2023-03-22T02:49:33.160Z,97.25
2023-03-22T02:50:18.621Z,97.25
2023-03-22T02:51:03.090Z,97.25
2023-03-22T02:51:48.313Z,97.25
2023-03-22T02:52:33.910Z,97.25
2023-03-22T02:53:18.630Z,97.25
2023-03-22T02:54:03.672Z,97.25
2023-03-22T02:54:48.657Z,97.25
2023-03-22T02:55:33.820Z,97.25
2023-03-22T02:56:18.752Z,97.25
2023-03-22T02:57:03.814Z,97.25
2023-03-22T02:57:48.865Z,97.25
2023-03-22T02:58:33.922Z,97.25
2023-03-22T02:59:18.945Z,97.25
2023-03-22T03:00:04.080Z,97.25
2023-03-22T03:00:49.326Z,97.25
2023-03-22T03:01:33.901Z,97.25
2023-03-22T03:02:19.022Z,97.25
2023-03-22T03:03:04.183Z,97.25
2023-03-22T03:03:49.013Z,97.25
2023-03-22T03:04:34.064Z,97.25
2023-03-22T03:05:19.391Z,97.25
2023-03-22T03:06:04.776Z,97.25
2023-03-22T03:06:49.448Z,97.25
2023-03-22T03:07:34.282Z,97.25
2023-03-22T03:08:19.551Z,97.25
2023-03-22T03:09:04.817Z,97.25
2023-03-22T03:09:49.457Z,97.25
2023-03-22T03:10:34.854Z,97.25
2023-03-22T03:11:19.926Z,97.25
2023-03-22T03:12:05.035Z,97.25
2023-03-22T03:12:50.167Z,97.25
2023-03-22T03:13:35.275Z,97.25
2023-03-22T03:14:19.902Z,97.25
2023-03-22T03:15:04.908Z,97.25
2023-03-22T03:15:50.285Z,97.25
2023-03-22T03:16:35.571Z,97.25
2023-03-22T03:17:20.509Z,97.25
2023-03-22T03:18:05.289Z,97.25
2023-03-22T03:18:50.653Z,97.25
2023-03-22T03:19:35.875Z,97.25
2023-03-22T03:20:21.324Z,97.25
2023-03-22T03:21:05.976Z,97.25
2023-03-22T03:21:50.896Z,97.25
2023-03-22T03:22:35.970Z,97.25
2023-03-22T03:23:20.965Z,97.25
2023-03-22T03:24:05.738Z,97.25
2023-03-22T03:24:51.001Z,97.25
2023-03-22T03:25:36.089Z,97.25
2023-03-22T03:26:20.794Z,97.25
2023-03-22T03:27:05.975Z,97.25
2023-03-22T03:27:51.106Z,97.25
2023-03-22T03:28:36.556Z,97.25
2023-03-22T03:29:21.031Z,97.25
2023-03-22T03:30:06.251Z,97.25
2023-03-22T03:30:51.038Z,97.25
2023-03-22T03:31:36.314Z,97.25
2023-03-22T03:32:21.669Z,97.25
2023-03-22T03:33:06.212Z,97.25
2023-03-22T03:33:51.530Z,97.25
2023-03-22T03:34:36.674Z,97.25
2023-03-22T03:35:21.493Z,97.25
2023-03-22T03:36:06.652Z,97.25
2023-03-22T03:36:51.775Z,97.25
2023-03-22T03:37:36.757Z,97.25
2023-03-22T03:38:21.705Z,97.25
2023-03-22T03:39:06.867Z,97.25
2023-03-22T03:39:51.737Z,97.25
2023-03-22T03:40:37.188Z,97.25
2023-03-22T03:41:22.181Z,97.25
2023-03-22T03:42:06.784Z,97.25
2023-03-22T03:42:52.006Z,97.25
2023-03-22T03:43:37.112Z,97.25
2023-03-22T03:44:22.054Z,97.25
2023-03-22T03:45:07.115Z,97.25
2023-03-22T03:45:52.194Z,97.25
2023-03-22T03:46:37.546Z,97.25
2023-03-22T03:47:22.417Z,97.25
2023-03-22T03:48:08.256Z,97.25
2023-03-22T03:48:52.290Z,97.25
2023-03-22T03:49:37.676Z,97.25
2023-03-22T03:50:23.647Z,97.25
2023-03-22T03:51:07.578Z,97.25
2023-03-22T03:51:53.026Z,97.25
2023-03-22T03:52:37.828Z,97.25
2023-03-22T03:53:22.529Z,97.25
2023-03-22T03:54:07.514Z,97.25
2023-03-22T03:54:52.951Z,97.25
2023-03-22T03:55:38.358Z,97.25
2023-03-22T03:56:23.060Z,97.25
2023-03-22T03:57:08.120Z,97.25
2023-03-22T03:57:53.077Z,97.25
2023-03-22T03:58:38.528Z,97.25
2023-03-22T03:59:23.561Z,97.25
2023-03-22T04:00:08.586Z,97.25
2023-03-22T04:00:53.511Z,97.25
2023-03-22T04:01:38.570Z,97.25
2023-03-22T04:02:23.618Z,97.25
2023-03-22T04:03:08.833Z,97.25
2023-03-22T04:03:53.881Z,97.25
2023-03-22T04:04:39.139Z,97.25
2023-03-22T04:05:24.274Z,97.25
2023-03-22T04:06:08.986Z,97.25
2023-03-22T04:06:53.854Z,97.25
2023-03-22T04:07:39.328Z,97.25
2023-03-22T04:08:24.385Z,97.25
2023-03-22T04:09:09.237Z,97.25
2023-03-22T04:09:54.286Z,97.25
2023-03-22T04:10:39.553Z,97.25
2023-03-22T04:11:24.508Z,97.25
2023-03-22T04:12:09.553Z,97.25
2023-03-22T04:12:54.641Z,97.25
2023-03-22T04:13:39.494Z,97.25
2023-03-22T04:14:24.836Z,97.25
2023-03-22T04:15:09.484Z,97.25
2023-03-22T04:15:54.529Z,97.25
2023-03-22T04:16:39.575Z,97.25
2023-03-22T04:17:24.747Z,97.25
2023-03-22T04:18:09.500Z,97.25
2023-03-22T04:18:54.692Z,97.25
2023-03-22T04:19:39.402Z,97.25
2023-03-22T04:20:25.954Z,97.25
2023-03-22T04:21:10.132Z,97.25
2023-03-22T04:21:54.982Z,97.25
2023-03-22T04:22:40.056Z,97.25
2023-03-22T04:23:24.952Z,97.25
2023-03-22T04:24:10.126Z,97.25
2023-03-22T04:24:55.366Z,97.25
2023-03-22T04:25:40.209Z,97.25
2023-03-22T04:26:26.606Z,97.25
2023-03-22T04:27:10.068Z,97.25
2023-03-22T04:27:55.367Z,97.25
2023-03-22T04:28:40.416Z,97.25
2023-03-22T04:29:25.248Z,97.25
2023-03-22T04:30:10.502Z,97.25
2023-03-22T04:30:56.660Z,97.25
2023-03-22T04:31:40.802Z,97.25
2023-03-22T04:32:25.811Z,97.25
2023-03-22T04:33:10.906Z,97.25
2023-03-22T04:33:55.899Z,97.25
2023-03-22T04:34:41.008Z,97.25
2023-03-22T04:35:26.768Z,97.25
2023-03-22T04:36:11.024Z,97.25
2023-03-22T04:36:56.005Z,97.25
2023-03-22T04:37:41.065Z,97.25
2023-03-22T04:38:25.918Z,97.25
2023-03-22T04:39:11.084Z,97.25
2023-03-22T04:39:56.275Z,97.25
2023-03-22T04:40:41.522Z,97.25
2023-03-22T04:41:26.198Z,97.25
2023-03-22T04:42:10.796Z,97.25
2023-03-22T04:42:56.253Z,97.25
2023-03-22T04:43:41.617Z,97.25
2023-03-22T04:44:26.682Z,97.25
2023-03-22T04:45:11.765Z,97.25
2023-03-22T04:45:56.492Z,97.25
2023-03-22T04:46:41.785Z,97.25
2023-03-22T04:47:26.479Z,97.25
2023-03-22T04:48:11.522Z,97.25
2023-03-22T04:48:57.021Z,97.25
2023-03-22T04:49:41.834Z,97.25
2023-03-22T04:50:27.534Z,97.25
2023-03-22T04:51:12.039Z,97.25
2023-03-22T04:51:57.037Z,97.25
2023-03-22T04:52:42.290Z,97.25
2023-03-22T04:53:27.092Z,97.25
2023-03-22T04:54:12.218Z,97.25
2023-03-22T04:54:57.158Z,97.25
2023-03-22T04:55:42.003Z,97.25
2023-03-22T04:56:27.067Z,97.25
2023-03-22T04:57:12.402Z,97.25
2023-03-22T04:57:57.299Z,97.25
2023-03-22T04:58:42.336Z,97.25
2023-03-22T04:59:27.445Z,97.25
2023-03-22T05:00:12.346Z,97.25
2023-03-22T05:00:57.747Z,97.25
2023-03-22T05:01:42.642Z,97.25
2023-03-22T05:02:27.676Z,97.25
2023-03-22T05:03:12.607Z,97.25
2023-03-22T05:03:57.735Z,97.25
2023-03-22T05:04:42.704Z,97.25
2023-03-22T05:05:28.359Z,97.25
2023-03-22T05:06:12.907Z,97.25
2023-03-22T05:06:57.953Z,97.25
2023-03-22T05:07:43.156Z,97.25
2023-03-22T05:08:28.020Z,97.25
2023-03-22T05:09:13.033Z,97.25
2023-03-22T05:09:57.983Z,97.25
2023-03-22T05:10:43.098Z,97.25
2023-03-22T05:11:27.936Z,97.25
2023-03-22T05:12:13.093Z,97.25
2023-03-22T05:12:58.311Z,97.25
2023-03-22T05:13:43.154Z,97.25
2023-03-22T05:14:28.134Z,97.25
2023-03-22T05:15:13.158Z,97.25
2023-03-22T05:15:58.666Z,97.25
2023-03-22T05:16:44.093Z,97.25
2023-03-22T05:17:28.556Z,97.25
2023-03-22T05:18:13.597Z,97.25
2023-03-22T05:18:58.868Z,97.25
2023-03-22T05:19:44.209Z,89.31
2023-03-22T05:20:28.720Z,100.23
2023-03-22T05:21:13.513Z,99.23
2023-03-22T05:21:58.668Z,98.24
2023-03-22T05:22:43.890Z,98.24
2023-03-22T05:23:28.794Z,99.23
2023-03-22T05:24:13.838Z,92.29
2023-03-22T05:24:58.784Z,92.29
2023-03-22T05:25:43.747Z,97.25
2023-03-22T05:26:28.614Z,96.26
2023-03-22T05:27:13.908Z,97.25
2023-03-22T05:27:58.819Z,99.23
2023-03-22T05:28:43.578Z,100.23
2023-03-22T05:29:29.039Z,101.22
2023-03-22T05:30:14.022Z,102.21
2023-03-22T05:30:58.945Z,100.23
2023-03-22T05:31:43.712Z,102.21
2023-03-22T05:32:29.210Z,103.20
2023-03-22T05:33:14.011Z,101.22
2023-03-22T05:33:59.955Z,101.22
2023-03-22T05:34:44.477Z,103.20
2023-03-22T05:35:30.095Z,100.99
2023-03-22T05:36:14.384Z,101.22
2023-03-22T05:36:59.154Z,100.23
2023-03-22T05:37:44.666Z,101.22
2023-03-22T05:38:29.667Z,101.22
2023-03-22T05:39:14.361Z,103.20
2023-03-22T05:39:59.624Z,99.23
2023-03-22T05:40:44.784Z,102.21
2023-03-22T05:41:29.960Z,101.22
2023-03-22T05:42:14.877Z,104.19
2023-03-22T05:42:59.788Z,104.19
2023-03-22T05:43:44.759Z,103.20
2023-03-22T05:44:29.962Z,103.20
2023-03-22T05:45:15.037Z,104.19
2023-03-22T05:46:00.380Z,103.20
2023-03-22T05:46:45.841Z,103.20
2023-03-22T05:47:30.186Z,102.21
2023-03-22T05:48:15.312Z,103.96
2023-03-22T05:49:00.293Z,102.21
2023-03-22T05:49:45.402Z,100.99
2023-03-22T05:50:30.482Z,102.21
2023-03-22T05:51:15.472Z,100.23
2023-03-22T05:52:00.629Z,101.22
2023-03-22T05:52:45.662Z,101.22
2023-03-22T05:53:30.881Z,103.20
2023-03-22T05:54:15.804Z,104.19
2023-03-22T05:55:00.832Z,102.21
2023-03-22T05:55:45.634Z,103.20
2023-03-22T05:56:30.939Z,105.19
2023-03-22T05:57:16.183Z,104.19
2023-03-22T05:58:00.987Z,104.19
2023-03-22T05:58:46.140Z,103.20
2023-03-22T05:59:31.311Z,103.20
2023-03-22T06:00:15.848Z,103.20
2023-03-22T06:01:01.041Z,102.21
2023-03-22T06:01:46.459Z,101.22
2023-03-22T06:02:31.541Z,102.21
2023-03-22T06:03:17.195Z,102.97
2023-03-22T06:04:01.177Z,103.20
2023-03-22T06:04:46.896Z,104.19
2023-03-22T06:05:31.657Z,101.98
2023-03-22T06:06:16.713Z,104.19
2023-03-22T06:07:01.451Z,103.20
2023-03-22T06:07:46.915Z,103.20
2023-03-22T06:08:31.577Z,103.20
2023-03-22T06:09:17.807Z,104.19
2023-03-22T06:10:01.879Z,104.19
2023-03-22T06:10:47.190Z,107.17
2023-03-22T06:11:31.746Z,106.18
2023-03-22T06:12:16.632Z,106.18
2023-03-22T06:13:02.167Z,106.18
2023-03-22T06:13:47.686Z,105.19
2023-03-22T06:14:31.949Z,108.16
2023-03-22T06:15:17.054Z,107.17
2023-03-22T06:16:01.985Z,106.18
2023-03-22T06:16:47.262Z,107.17
2023-03-22T06:17:32.512Z,106.18
2023-03-22T06:18:17.458Z,107.17
2023-03-22T06:19:02.363Z,106.18
2023-03-22T06:19:47.661Z,108.16
2023-03-22T06:20:32.610Z,107.17
2023-03-22T06:21:17.537Z,107.17
2023-03-22T06:22:02.696Z,108.16
2023-03-22T06:22:47.740Z,107.92
2023-03-22T06:23:32.693Z,108.16
2023-03-22T06:24:17.761Z,108.16
2023-03-22T06:25:02.806Z,108.16
2023-03-22T06:25:48.281Z,108.16
2023-03-22T06:26:33.272Z,108.16
2023-03-22T06:27:18.179Z,106.93
2023-03-22T06:28:03.034Z,108.16
2023-03-22T06:28:48.412Z,107.17
2023-03-22T06:29:33.447Z,108.16
2023-03-22T06:30:18.832Z,108.16
2023-03-22T06:31:03.108Z,108.16
2023-03-22T06:31:48.661Z,108.16
2023-03-22T06:32:33.571Z,107.17
2023-03-22T06:33:18.530Z,109.16
2023-03-22T06:34:03.581Z,107.17
2023-03-22T06:34:48.679Z,108.16
2023-03-22T06:35:33.957Z,106.18
2023-03-22T06:36:18.966Z,108.16
2023-03-22T06:37:03.602Z,106.18
2023-03-22T06:37:48.532Z,108.16
2023-03-22T06:38:34.087Z,107.92
2023-03-22T06:39:18.778Z,107.17
2023-03-22T06:40:03.849Z,107.17
2023-03-22T06:40:49.113Z,108.16
2023-03-22T06:41:34.215Z,108.16
2023-03-22T06:42:18.682Z,108.16
2023-03-22T06:43:06.389Z,108.16
2023-03-22T06:43:49.209Z,107.17
2023-03-22T06:44:33.952Z,106.18
2023-03-22T06:45:20.306Z,107.17
2023-03-22T06:46:04.503Z,107.17
2023-03-22T06:46:49.146Z,106.93
2023-03-22T06:47:34.075Z,108.16
2023-03-22T06:48:19.721Z,108.16
2023-03-22T06:49:04.507Z,108.16
2023-03-22T06:49:49.522Z,107.17
2023-03-22T06:50:34.509Z,107.17
2023-03-22T06:51:19.358Z,106.93
2023-03-22T06:52:04.825Z,106.18
2023-03-22T06:52:49.608Z,107.17
2023-03-22T06:53:34.540Z,107.17
2023-03-22T06:54:19.285Z,106.18
2023-03-22T06:55:04.860Z,106.18
2023-03-22T06:55:49.642Z,105.19
2023-03-22T06:56:34.655Z,107.17
2023-03-22T06:57:20.314Z,106.93
2023-03-22T06:58:04.779Z,106.18
2023-03-22T06:58:49.897Z,106.18
2023-03-22T06:59:35.011Z,106.18
2023-03-22T07:00:20.957Z,107.17
2023-03-22T07:01:05.342Z,107.17
2023-03-22T07:01:50.830Z,108.16
2023-03-22T07:02:35.108Z,107.17
2023-03-22T07:03:20.364Z,107.17
2023-03-22T07:04:05.366Z,108.16
2023-03-22T07:04:50.997Z,108.16
2023-03-22T07:05:35.437Z,108.16
2023-03-22T07:06:20.459Z,107.17
2023-03-22T07:07:05.442Z,106.18
2023-03-22T07:07:50.852Z,102.21
2023-03-22T07:08:35.686Z,104.19
2023-03-22T07:09:20.385Z,106.18
2023-03-22T07:10:05.565Z,104.19
2023-03-22T07:10:50.835Z,103.96
2023-03-22T07:11:36.196Z,102.21
2023-03-22T07:12:20.777Z,102.21
2023-03-22T07:13:06.406Z,103.20
2023-03-22T07:13:50.747Z,102.21
2023-03-22T07:14:36.005Z,103.20
2023-03-22T07:15:21.726Z,103.20
2023-03-22T07:16:05.944Z,104.19
2023-03-22T07:16:51.174Z,105.19
2023-03-22T07:17:36.216Z,106.18
2023-03-22T07:18:21.044Z,106.18
2023-03-22T07:19:06.451Z,105.94
2023-03-22T07:19:51.046Z,106.18
2023-03-22T07:20:36.420Z,106.18
2023-03-22T07:21:21.794Z,105.19
2023-03-22T07:22:06.568Z,106.18
2023-03-22T07:22:51.533Z,105.19
2023-03-22T07:23:36.939Z,106.18
2023-03-22T07:24:21.851Z,106.18
2023-03-22T07:25:06.801Z,107.17
2023-03-22T07:25:51.519Z,107.17
2023-03-22T07:26:37.110Z,105.19
2023-03-22T07:27:21.967Z,105.94
2023-03-22T07:28:07.170Z,99.23
2023-03-22T07:28:51.878Z,99.23
2023-03-22T07:29:37.180Z,102.21
2023-03-22T07:30:22.869Z,101.22
2023-03-22T07:31:07.357Z,102.21
2023-03-22T07:31:52.330Z,100.23
2023-03-22T07:32:37.518Z,101.22
2023-03-22T07:33:22.091Z,101.22
2023-03-22T07:34:07.398Z,101.22
2023-03-22T07:34:52.432Z,101.22
2023-03-22T07:35:37.624Z,103.20
2023-03-22T07:36:22.664Z,102.21
2023-03-22T07:37:08.326Z,102.21
2023-03-22T07:37:53.197Z,103.20
2023-03-22T07:38:37.751Z,104.19
2023-03-22T07:39:23.237Z,102.21
2023-03-22T07:40:07.911Z,102.97
2023-03-22T07:40:53.096Z,102.21
2023-03-22T07:41:37.840Z,101.22
2023-03-22T07:42:22.852Z,102.21
2023-03-22T07:43:07.955Z,104.19
2023-03-22T07:43:58.236Z,103.20
2023-03-22T07:44:37.889Z,104.19
2023-03-22T07:45:23.736Z,102.21
2023-03-22T07:46:08.715Z,103.20
2023-03-22T07:46:53.620Z,103.20
2023-03-22T07:47:40.829Z,102.21
2023-03-22T07:48:23.481Z,102.21
2023-03-22T07:49:08.614Z,98.24
2023-03-22T07:49:53.360Z,99.23
2023-03-22T07:50:38.845Z,102.21
2023-03-22T07:51:23.930Z,102.21
2023-03-22T07:52:08.832Z,99.23
2023-03-22T07:52:54.035Z,103.20
2023-03-22T07:53:38.847Z,103.20
2023-03-22T07:54:33.539Z,102.21
2023-03-22T07:55:09.434Z,102.21
2023-03-22T07:55:54.118Z,102.21
2023-03-22T07:56:39.140Z,102.21
2023-03-22T07:57:23.923Z,102.21
2023-03-22T07:58:09.187Z,100.23
2023-03-22T07:58:53.962Z,100.23
2023-03-22T07:59:40.118Z,100.23
2023-03-22T08:00:24.167Z,100.23
2023-03-22T08:01:09.776Z,102.21
2023-03-22T08:01:54.455Z,102.21
2023-03-22T08:02:39.455Z,100.23
2023-03-22T08:03:24.700Z,100.00
2023-03-22T08:04:09.560Z,98.24
2023-03-22T08:04:56.222Z,100.99
2023-03-22T08:05:39.932Z,101.22
2023-03-22T08:06:24.600Z,101.22
2023-03-22T08:07:09.454Z,102.21
2023-03-22T08:07:54.375Z,101.22
2023-03-22T08:08:39.666Z,102.21
2023-03-22T08:09:24.726Z,101.98
2023-03-22T08:10:09.987Z,101.22
2023-03-22T08:10:55.273Z,102.21
2023-03-22T08:11:39.889Z,102.21
2023-03-22T08:12:25.048Z,100.99
2023-03-22T08:13:10.348Z,97.25
2023-03-22T08:13:55.274Z,101.98
2023-03-22T08:14:40.252Z,101.22
2023-03-22T08:15:25.464Z,101.22
2023-03-22T08:16:10.469Z,96.26
2023-03-22T08:16:55.747Z,96.26
2023-03-22T08:17:41.079Z,100.23
2023-03-22T08:18:25.458Z,98.24
2023-03-22T08:19:10.619Z,95.26
2023-03-22T08:19:55.511Z,96.04
2023-03-22T08:20:40.698Z,98.24
2023-03-22T08:21:25.121Z,98.24
2023-03-22T08:22:10.871Z,100.23
2023-03-22T08:22:55.603Z,98.02
2023-03-22T08:23:42.119Z,98.24
2023-03-22T08:24:25.649Z,98.24
2023-03-22T08:25:10.878Z,98.24
2023-03-22T08:25:56.217Z,100.23
2023-03-22T08:26:40.840Z,102.21
2023-03-22T08:27:26.121Z,99.23
2023-03-22T08:28:11.134Z,99.23
2023-03-22T08:28:56.151Z,101.22
2023-03-22T08:29:40.841Z,101.22
2023-03-22T08:30:26.236Z,100.23
2023-03-22T08:31:12.254Z,99.01
2023-03-22T08:31:56.022Z,98.24
2023-03-22T08:32:41.388Z,98.24
2023-03-22T08:33:26.290Z,97.25
2023-03-22T08:34:11.641Z,99.23
2023-03-22T08:34:56.673Z,99.23
2023-03-22T08:35:42.064Z,101.22
2023-03-22T08:36:27.044Z,98.24
2023-03-22T08:37:11.705Z,100.23
2023-03-22T08:37:56.661Z,100.23
2023-03-22T08:38:41.932Z,100.99
2023-03-22T08:39:27.100Z,100.23
2023-03-22T08:40:11.926Z,102.97
2023-03-22T08:40:56.881Z,104.19
2023-03-22T08:41:41.986Z,103.96
2023-03-22T08:42:27.330Z,104.19
2023-03-22T08:43:12.059Z,105.94
2023-03-22T08:43:57.531Z,105.19
2023-03-22T08:44:42.272Z,103.20
2023-03-22T08:45:28.048Z,102.21
2023-03-22T08:46:12.351Z,101.22
2023-03-22T08:46:57.639Z,101.22
2023-03-22T08:47:42.341Z,102.21
2023-03-22T08:48:27.493Z,102.21
2023-03-22T08:49:12.623Z,103.20
2023-03-22T08:49:57.427Z,103.20
2023-03-22T08:50:42.581Z,101.22
2023-03-22T08:51:27.684Z,100.23
2023-03-22T08:52:12.830Z,101.22
2023-03-22T08:52:57.825Z,103.20
2023-03-22T08:53:42.726Z,104.19
2023-03-22T08:54:28.221Z,105.19
2023-03-22T08:55:12.917Z,103.20
2023-03-22T08:55:58.268Z,100.23
2023-03-22T08:56:42.988Z,103.20
2023-03-22T08:57:28.344Z,102.21
2023-03-22T08:58:13.080Z,101.22
2023-03-22T08:58:58.443Z,101.22
2023-03-22T08:59:42.991Z,101.22
2023-03-22T09:00:39.136Z,100.23
2023-03-22T09:01:13.625Z,98.24
2023-03-22T09:01:58.521Z,97.25
2023-03-22T09:02:44.006Z,101.22
2023-03-22T09:03:28.774Z,101.22
2023-03-22T09:04:13.455Z,100.23
2023-03-22T09:04:58.280Z,100.23
2023-03-22T09:05:44.087Z,101.22
2023-03-22T09:06:28.605Z,101.22
2023-03-22T09:07:13.757Z,100.23
2023-03-22T09:08:05.846Z,100.23
2023-03-22T09:08:43.978Z,101.22
2023-03-22T09:09:28.926Z,100.23
2023-03-22T09:10:14.263Z,99.23
2023-03-22T09:10:59.072Z,99.23
2023-03-22T09:11:44.234Z,97.25
2023-03-22T09:12:28.849Z,99.23
2023-03-22T09:13:13.828Z,100.23
2023-03-22T09:13:59.465Z,100.23
2023-03-22T09:14:44.269Z,102.21
2023-03-22T09:15:29.760Z,101.98
2023-03-22T09:16:14.709Z,102.21
2023-03-22T09:16:59.624Z,99.23
2023-03-22T09:17:44.583Z,100.23
2023-03-22T09:18:29.332Z,99.23
2023-03-22T09:19:14.778Z,99.23
2023-03-22T09:20:11.640Z,98.24
2023-03-22T09:20:44.602Z,101.22
2023-03-22T09:21:30.078Z,101.22
2023-03-22T09:22:14.683Z,101.22
2023-03-22T09:22:59.737Z,101.22
2023-03-22T09:23:45.684Z,101.98
2023-03-22T09:24:30.198Z,100.23
2023-03-22T09:25:15.007Z,100.23
2023-03-22T09:26:00.239Z,98.24
2023-03-22T09:26:45.234Z,100.00
2023-03-22T09:27:30.294Z,99.23
2023-03-22T09:28:15.076Z,99.01
2023-03-22T09:29:00.373Z,99.23
2023-03-22T09:29:45.509Z,99.23
2023-03-22T09:30:30.808Z,97.25
2023-03-22T09:31:15.113Z,99.23
2023-03-22T09:32:00.716Z,97.25
2023-03-22T09:32:48.571Z,100.23
2023-03-22T09:33:30.801Z,100.23